sensor_id;sensor_type;location;lat;lon;timestamp;P1;durP1;ratioP1;P2;durP2;ratioP2
23868;SDS011;12115;47.128;15.422;2023-03-23T00:02:27;8.63;;;4.07;;
23868;SDS011;12115;47.128;15.422;2023-03-23T00:04:54;6.25;;;4.25;;
23868;SDS011;12115;47.128;15.422;2023-03-23T00:07:21;5.00;;;4.03;;
23868;SDS011;12115;47.128;15.422;2023-03-23T00:09:48;7.45;;;4.15;;
23868;SDS011;12115;47.128;15.422;2023-03-23T00:12:23;6.88;;;3.53;;
23868;SDS011;12115;47.128;15.422;2023-03-23T00:15:03;5.68;;;3.30;;
23868;SDS011;12115;47.128;15.422;2023-03-23T00:17:31;6.22;;;3.40;;
23868;SDS011;12115;47.128;15.422;2023-03-23T00:20:01;6.65;;;3.63;;
23868;SDS011;12115;47.128;15.422;2023-03-23T00:22:30;6.03;;;3.72;;
23868;SDS011;12115;47.128;15.422;2023-03-23T00:25:05;5.60;;;3.70;;
23868;SDS011;12115;47.128;15.422;2023-03-23T00:27:34;7.00;;;3.85;;
23868;SDS011;12115;47.128;15.422;2023-03-23T00:30:00;5.55;;;4.00;;
23868;SDS011;12115;47.128;15.422;2023-03-23T00:32:27;5.15;;;3.58;;
23868;SDS011;12115;47.128;15.422;2023-03-23T00:34:54;6.30;;;3.97;;
23868;SDS011;12115;47.128;15.422;2023-03-23T00:37:24;9.63;;;3.88;;
23868;SDS011;12115;47.128;15.422;2023-03-23T00:39:52;6.18;;;3.42;;
23868;SDS011;12115;47.128;15.422;2023-03-23T00:42:22;5.25;;;3.88;;
23868;SDS011;12115;47.128;15.422;2023-03-23T00:44:49;7.32;;;3.83;;
23868;SDS011;12115;47.128;15.422;2023-03-23T00:47:16;5.25;;;3.47;;
23868;SDS011;12115;47.128;15.422;2023-03-23T00:49:42;5.82;;;3.88;;
23868;SDS011;12115;47.128;15.422;2023-03-23T00:52:09;6.63;;;3.58;;
23868;SDS011;12115;47.128;15.422;2023-03-23T00:54:37;4.30;;;3.25;;
23868;SDS011;12115;47.128;15.422;2023-03-23T00:57:04;4.70;;;3.67;;
23868;SDS011;12115;47.128;15.422;2023-03-23T00:59:31;6.00;;;2.92;;
23868;SDS011;12115;47.128;15.422;2023-03-23T01:01:58;5.07;;;3.40;;
23868;SDS011;12115;47.128;15.422;2023-03-23T01:04:24;6.03;;;3.67;;
23868;SDS011;12115;47.128;15.422;2023-03-23T01:06:50;5.10;;;3.70;;
23868;SDS011;12115;47.128;15.422;2023-03-23T01:09:17;5.93;;;4.00;;
23868;SDS011;12115;47.128;15.422;2023-03-23T01:11:48;4.32;;;3.40;;
23868;SDS011;12115;47.128;15.422;2023-03-23T01:14:16;4.50;;;3.58;;
23868;SDS011;12115;47.128;15.422;2023-03-23T01:16:44;5.15;;;3.47;;
23868;SDS011;12115;47.128;15.422;2023-03-23T01:19:10;4.57;;;3.35;;
23868;SDS011;12115;47.128;15.422;2023-03-23T01:21:37;7.18;;;3.83;;
23868;SDS011;12115;47.128;15.422;2023-03-23T01:24:04;5.43;;;3.70;;
23868;SDS011;12115;47.128;15.422;2023-03-23T01:26:31;6.45;;;3.67;;
23868;SDS011;12115;47.128;15.422;2023-03-23T01:28:57;5.57;;;3.70;;
23868;SDS011;12115;47.128;15.422;2023-03-23T01:31:25;5.93;;;3.97;;
23868;SDS011;12115;47.128;15.422;2023-03-23T01:33:52;5.05;;;3.38;;
23868;SDS011;12115;47.128;15.422;2023-03-23T01:36:21;4.30;;;3.08;;
23868;SDS011;12115;47.128;15.422;2023-03-23T01:38:49;4.88;;;3.20;;
23868;SDS011;12115;47.128;15.422;2023-03-23T01:41:16;7.80;;;3.65;;
23868;SDS011;12115;47.128;15.422;2023-03-23T01:46:52;7.10;;;3.67;;
23868;SDS011;12115;47.128;15.422;2023-03-23T01:49:22;5.25;;;3.70;;
23868;SDS011;12115;47.128;15.422;2023-03-23T01:51:53;6.28;;;4.05;;
23868;SDS011;12115;47.128;15.422;2023-03-23T01:54:24;5.47;;;3.75;;
23868;SDS011;12115;47.128;15.422;2023-03-23T01:57:03;4.97;;;3.50;;
23868;SDS011;12115;47.128;15.422;2023-03-23T01:59:44;8.15;;;4.18;;
23868;SDS011;12115;47.128;15.422;2023-03-23T02:02:26;3.47;;;3.17;;
23868;SDS011;12115;47.128;15.422;2023-03-23T02:04:55;6.28;;;3.70;;
23868;SDS011;12115;47.128;15.422;2023-03-23T02:07:28;3.75;;;3.35;;
23868;SDS011;12115;47.128;15.422;2023-03-23T02:09:57;8.70;;;3.55;;
23868;SDS011;12115;47.128;15.422;2023-03-23T02:12:26;7.35;;;3.50;;
23868;SDS011;12115;47.128;15.422;2023-03-23T02:14:53;5.65;;;3.58;;
23868;SDS011;12115;47.128;15.422;2023-03-23T02:17:25;5.78;;;4.30;;
23868;SDS011;12115;47.128;15.422;2023-03-23T02:20:06;4.10;;;3.22;;
23868;SDS011;12115;47.128;15.422;2023-03-23T02:22:50;5.13;;;3.83;;
23868;SDS011;12115;47.128;15.422;2023-03-23T02:33:29;4.72;;;3.20;;
23868;SDS011;12115;47.128;15.422;2023-03-23T02:41:25;6.40;;;3.25;;
23868;SDS011;12115;47.128;15.422;2023-03-23T02:43:55;7.25;;;3.78;;
23868;SDS011;12115;47.128;15.422;2023-03-23T02:46:23;4.75;;;3.42;;
23868;SDS011;12115;47.128;15.422;2023-03-23T02:48:50;6.07;;;4.00;;
23868;SDS011;12115;47.128;15.422;2023-03-23T02:51:19;4.80;;;3.35;;
23868;SDS011;12115;47.128;15.422;2023-03-23T02:53:48;6.00;;;3.53;;
23868;SDS011;12115;47.128;15.422;2023-03-23T02:56:17;8.25;;;3.85;;
23868;SDS011;12115;47.128;15.422;2023-03-23T02:58:46;4.55;;;3.42;;
23868;SDS011;12115;47.128;15.422;2023-03-23T03:03:51;6.72;;;3.30;;
23868;SDS011;12115;47.128;15.422;2023-03-23T03:09:07;5.78;;;3.50;;
23868;SDS011;12115;47.128;15.422;2023-03-23T03:11:42;7.18;;;3.85;;
23868;SDS011;12115;47.128;15.422;2023-03-23T03:14:23;5.05;;;3.85;;
23868;SDS011;12115;47.128;15.422;2023-03-23T03:17:02;4.43;;;3.35;;
23868;SDS011;12115;47.128;15.422;2023-03-23T03:19:40;6.60;;;4.30;;
23868;SDS011;12115;47.128;15.422;2023-03-23T03:22:10;4.85;;;3.72;;
23868;SDS011;12115;47.128;15.422;2023-03-23T03:24:39;6.07;;;3.78;;
23868;SDS011;12115;47.128;15.422;2023-03-23T03:27:14;5.93;;;3.83;;
23868;SDS011;12115;47.128;15.422;2023-03-23T03:29:47;6.53;;;3.75;;
23868;SDS011;12115;47.128;15.422;2023-03-23T03:32:20;5.72;;;3.60;;
23868;SDS011;12115;47.128;15.422;2023-03-23T03:34:50;6.13;;;3.72;;
23868;SDS011;12115;47.128;15.422;2023-03-23T03:37:18;5.88;;;3.67;;
23868;SDS011;12115;47.128;15.422;2023-03-23T03:39:48;4.90;;;3.55;;
23868;SDS011;12115;47.128;15.422;2023-03-23T03:42:14;4.18;;;3.30;;
23868;SDS011;12115;47.128;15.422;2023-03-23T03:44:41;3.80;;;3.35;;
23868;SDS011;12115;47.128;15.422;2023-03-23T03:47:07;4.68;;;3.70;;
23868;SDS011;12115;47.128;15.422;2023-03-23T03:49:33;6.65;;;3.80;;
23868;SDS011;12115;47.128;15.422;2023-03-23T03:52:00;5.50;;;4.25;;
23868;SDS011;12115;47.128;15.422;2023-03-23T03:54:36;6.63;;;3.42;;
23868;SDS011;12115;47.128;15.422;2023-03-23T03:57:03;5.53;;;3.90;;
23868;SDS011;12115;47.128;15.422;2023-03-23T03:59:35;4.20;;;3.20;;
23868;SDS011;12115;47.128;15.422;2023-03-23T04:02:27;4.90;;;3.92;;
23868;SDS011;12115;47.128;15.422;2023-03-23T04:04:54;4.30;;;3.55;;
23868;SDS011;12115;47.128;15.422;2023-03-23T04:07:20;6.28;;;3.28;;
23868;SDS011;12115;47.128;15.422;2023-03-23T04:09:48;5.75;;;3.80;;
23868;SDS011;12115;47.128;15.422;2023-03-23T04:12:18;6.95;;;3.58;;
23868;SDS011;12115;47.128;15.422;2023-03-23T04:14:56;8.23;;;3.45;;
23868;SDS011;12115;47.128;15.422;2023-03-23T04:17:32;5.82;;;4.18;;
23868;SDS011;12115;47.128;15.422;2023-03-23T04:20:00;5.15;;;3.50;;
23868;SDS011;12115;47.128;15.422;2023-03-23T04:22:32;6.90;;;4.00;;
23868;SDS011;12115;47.128;15.422;2023-03-23T04:25:00;8.82;;;4.20;;
23868;SDS011;12115;47.128;15.422;2023-03-23T04:27:33;5.35;;;3.55;;
23868;SDS011;12115;47.128;15.422;2023-03-23T04:30:02;6.22;;;3.80;;
23868;SDS011;12115;47.128;15.422;2023-03-23T04:32:48;5.85;;;3.42;;
23868;SDS011;12115;47.128;15.422;2023-03-23T04:35:21;6.25;;;2.85;;
23868;SDS011;12115;47.128;15.422;2023-03-23T04:38:04;4.60;;;3.42;;
23868;SDS011;12115;47.128;15.422;2023-03-23T04:40:31;6.18;;;3.63;;
23868;SDS011;12115;47.128;15.422;2023-03-23T04:43:13;6.18;;;4.03;;
23868;SDS011;12115;47.128;15.422;2023-03-23T04:46:12;4.07;;;3.13;;
23868;SDS011;12115;47.128;15.422;2023-03-23T04:48:45;4.97;;;3.65;;
23868;SDS011;12115;47.128;15.422;2023-03-23T04:51:18;5.97;;;4.13;;
23868;SDS011;12115;47.128;15.422;2023-03-23T04:53:48;4.95;;;3.80;;
23868;SDS011;12115;47.128;15.422;2023-03-23T04:56:14;7.85;;;4.10;;
23868;SDS011;12115;47.128;15.422;2023-03-23T04:58:43;5.97;;;3.33;;
23868;SDS011;12115;47.128;15.422;2023-03-23T05:01:32;5.53;;;2.95;;
23868;SDS011;12115;47.128;15.422;2023-03-23T05:04:12;5.88;;;3.63;;
23868;SDS011;12115;47.128;15.422;2023-03-23T05:06:47;4.60;;;3.40;;
23868;SDS011;12115;47.128;15.422;2023-03-23T05:09:20;5.35;;;3.47;;
23868;SDS011;12115;47.128;15.422;2023-03-23T05:11:47;3.95;;;3.15;;
23868;SDS011;12115;47.128;15.422;2023-03-23T05:14:14;5.93;;;3.92;;
23868;SDS011;12115;47.128;15.422;2023-03-23T05:16:44;4.32;;;3.17;;
23868;SDS011;12115;47.128;15.422;2023-03-23T05:19:14;3.58;;;3.13;;
23868;SDS011;12115;47.128;15.422;2023-03-23T05:21:41;5.32;;;3.78;;
23868;SDS011;12115;47.128;15.422;2023-03-23T05:24:07;4.60;;;3.35;;
23868;SDS011;12115;47.128;15.422;2023-03-23T05:26:33;5.65;;;2.97;;
23868;SDS011;12115;47.128;15.422;2023-03-23T05:29:08;3.72;;;2.50;;
23868;SDS011;12115;47.128;15.422;2023-03-23T05:31:45;10.15;;;4.22;;
23868;SDS011;12115;47.128;15.422;2023-03-23T05:34:13;5.88;;;3.78;;
23868;SDS011;12115;47.128;15.422;2023-03-23T05:36:52;5.07;;;3.40;;
23868;SDS011;12115;47.128;15.422;2023-03-23T05:39:42;5.68;;;3.97;;
23868;SDS011;12115;47.128;15.422;2023-03-23T05:42:23;5.70;;;3.17;;
23868;SDS011;12115;47.128;15.422;2023-03-23T05:45:05;3.78;;;2.92;;
23868;SDS011;12115;47.128;15.422;2023-03-23T05:47:35;6.50;;;3.65;;
23868;SDS011;12115;47.128;15.422;2023-03-23T05:50:07;5.40;;;2.92;;
23868;SDS011;12115;47.128;15.422;2023-03-23T05:52:36;4.13;;;2.67;;
23868;SDS011;12115;47.128;15.422;2023-03-23T05:55:11;5.68;;;3.00;;
23868;SDS011;12115;47.128;15.422;2023-03-23T05:57:51;9.85;;;4.10;;
23868;SDS011;12115;47.128;15.422;2023-03-23T06:00:24;4.35;;;3.70;;
23868;SDS011;12115;47.128;15.422;2023-03-23T06:03:02;5.80;;;3.53;;
23868;SDS011;12115;47.128;15.422;2023-03-23T06:05:52;4.72;;;3.58;;
23868;SDS011;12115;47.128;15.422;2023-03-23T06:08:21;4.95;;;4.13;;
23868;SDS011;12115;47.128;15.422;2023-03-23T06:10:48;6.90;;;3.92;;
23868;SDS011;12115;47.128;15.422;2023-03-23T06:13:15;12.93;;;4.95;;
23868;SDS011;12115;47.128;15.422;2023-03-23T06:15:46;13.02;;;5.63;;
23868;SDS011;12115;47.128;15.422;2023-03-23T06:18:40;4.32;;;3.30;;
23868;SDS011;12115;47.128;15.422;2023-03-23T06:21:28;5.63;;;3.15;;
23868;SDS011;12115;47.128;15.422;2023-03-23T06:24:20;11.45;;;6.45;;
23868;SDS011;12115;47.128;15.422;2023-03-23T06:26:47;10.13;;;5.57;;
23868;SDS011;12115;47.128;15.422;2023-03-23T06:29:28;12.87;;;6.07;;
23868;SDS011;12115;47.128;15.422;2023-03-23T06:32:00;13.07;;;5.55;;
23868;SDS011;12115;47.128;15.422;2023-03-23T06:34:29;10.75;;;6.30;;
23868;SDS011;12115;47.128;15.422;2023-03-23T06:37:17;17.05;;;5.45;;
23868;SDS011;12115;47.128;15.422;2023-03-23T06:39:58;10.77;;;5.30;;
23868;SDS011;12115;47.128;15.422;2023-03-23T06:42:29;7.88;;;4.32;;
23868;SDS011;12115;47.128;15.422;2023-03-23T06:45:18;15.98;;;5.20;;
23868;SDS011;12115;47.128;15.422;2023-03-23T06:47:48;10.75;;;5.22;;
23868;SDS011;12115;47.128;15.422;2023-03-23T06:50:15;9.02;;;3.20;;
23868;SDS011;12115;47.128;15.422;2023-03-23T06:52:47;14.10;;;4.75;;
23868;SDS011;12115;47.128;15.422;2023-03-23T06:55:16;9.80;;;5.80;;
23868;SDS011;12115;47.128;15.422;2023-03-23T06:57:43;7.40;;;5.40;;
23868;SDS011;12115;47.128;15.422;2023-03-23T07:00:11;4.68;;;3.25;;
23868;SDS011;12115;47.128;15.422;2023-03-23T07:02:41;5.75;;;3.42;;
23868;SDS011;12115;47.128;15.422;2023-03-23T07:05:10;8.93;;;4.20;;
23868;SDS011;12115;47.128;15.422;2023-03-23T07:07:38;12.75;;;5.30;;
23868;SDS011;12115;47.128;15.422;2023-03-23T07:10:41;9.55;;;4.65;;
23868;SDS011;12115;47.128;15.422;2023-03-23T07:13:09;7.38;;;5.18;;
23868;SDS011;12115;47.128;15.422;2023-03-23T07:15:44;11.52;;;5.57;;
23868;SDS011;12115;47.128;15.422;2023-03-23T07:18:11;10.63;;;5.93;;
23868;SDS011;12115;47.128;15.422;2023-03-23T07:20:49;8.95;;;5.25;;
23868;SDS011;12115;47.128;15.422;2023-03-23T07:23:18;14.98;;;5.93;;
23868;SDS011;12115;47.128;15.422;2023-03-23T07:25:52;10.43;;;5.43;;
23868;SDS011;12115;47.128;15.422;2023-03-23T07:30:53;11.40;;;5.88;;
23868;SDS011;12115;47.128;15.422;2023-03-23T07:33:20;8.30;;;4.88;;
23868;SDS011;12115;47.128;15.422;2023-03-23T07:35:47;10.75;;;5.53;;
23868;SDS011;12115;47.128;15.422;2023-03-23T07:38:17;11.43;;;5.55;;
23868;SDS011;12115;47.128;15.422;2023-03-23T07:40:50;7.85;;;5.18;;
23868;SDS011;12115;47.128;15.422;2023-03-23T07:43:18;10.85;;;5.50;;
23868;SDS011;12115;47.128;15.422;2023-03-23T07:45:54;18.20;;;5.28;;
23868;SDS011;12115;47.128;15.422;2023-03-23T07:48:24;8.23;;;4.97;;
23868;SDS011;12115;47.128;15.422;2023-03-23T07:50:52;12.30;;;5.55;;
23868;SDS011;12115;47.128;15.422;2023-03-23T07:53:18;18.15;;;5.93;;
23868;SDS011;12115;47.128;15.422;2023-03-23T07:55:53;12.27;;;4.82;;
23868;SDS011;12115;47.128;15.422;2023-03-23T07:58:38;11.63;;;5.63;;
23868;SDS011;12115;47.128;15.422;2023-03-23T08:01:11;12.20;;;5.28;;
23868;SDS011;12115;47.128;15.422;2023-03-23T08:03:39;11.95;;;4.72;;
23868;SDS011;12115;47.128;15.422;2023-03-23T08:06:23;11.65;;;5.68;;
23868;SDS011;12115;47.128;15.422;2023-03-23T08:08:59;14.75;;;4.68;;
23868;SDS011;12115;47.128;15.422;2023-03-23T08:11:44;11.80;;;4.93;;
23868;SDS011;12115;47.128;15.422;2023-03-23T08:14:33;13.07;;;4.80;;
23868;SDS011;12115;47.128;15.422;2023-03-23T08:17:18;13.10;;;5.25;;
23868;SDS011;12115;47.128;15.422;2023-03-23T08:20:07;10.57;;;5.05;;
23868;SDS011;12115;47.128;15.422;2023-03-23T08:23:08;11.15;;;4.88;;
23868;SDS011;12115;47.128;15.422;2023-03-23T08:25:49;21.87;;;5.50;;
23868;SDS011;12115;47.128;15.422;2023-03-23T08:31:38;11.40;;;4.53;;
23868;SDS011;12115;47.128;15.422;2023-03-23T08:34:27;10.30;;;4.40;;
23868;SDS011;12115;47.128;15.422;2023-03-23T08:37:20;14.90;;;4.80;;
23868;SDS011;12115;47.128;15.422;2023-03-23T08:39:53;12.52;;;4.70;;
23868;SDS011;12115;47.128;15.422;2023-03-23T08:42:44;8.18;;;4.28;;
23868;SDS011;12115;47.128;15.422;2023-03-23T08:45:30;10.13;;;4.35;;
23868;SDS011;12115;47.128;15.422;2023-03-23T08:47:59;12.00;;;4.10;;
23868;SDS011;12115;47.128;15.422;2023-03-23T08:51:01;14.40;;;4.53;;
23868;SDS011;12115;47.128;15.422;2023-03-23T08:53:44;9.73;;;3.70;;
23868;SDS011;12115;47.128;15.422;2023-03-23T08:56:29;8.00;;;4.13;;
23868;SDS011;12115;47.128;15.422;2023-03-23T08:59:14;9.88;;;4.20;;
23868;SDS011;12115;47.128;15.422;2023-03-23T09:02:10;10.82;;;3.88;;
23868;SDS011;12115;47.128;15.422;2023-03-23T09:04:51;8.68;;;3.47;;
23868;SDS011;12115;47.128;15.422;2023-03-23T09:07:38;7.32;;;3.63;;
23868;SDS011;12115;47.128;15.422;2023-03-23T09:10:07;11.13;;;3.80;;
23868;SDS011;12115;47.128;15.422;2023-03-23T09:12:34;8.95;;;3.65;;
23868;SDS011;12115;47.128;15.422;2023-03-23T09:15:02;5.97;;;3.03;;
23868;SDS011;12115;47.128;15.422;2023-03-23T09:17:37;8.15;;;3.70;;
23868;SDS011;12115;47.128;15.422;2023-03-23T09:20:08;6.53;;;3.03;;
23868;SDS011;12115;47.128;15.422;2023-03-23T09:22:42;5.93;;;3.03;;
23868;SDS011;12115;47.128;15.422;2023-03-23T09:25:11;7.22;;;3.92;;
23868;SDS011;12115;47.128;15.422;2023-03-23T09:27:39;12.80;;;3.20;;
23868;SDS011;12115;47.128;15.422;2023-03-23T09:30:08;7.40;;;3.20;;
23868;SDS011;12115;47.128;15.422;2023-03-23T09:32:37;9.13;;;3.78;;
23868;SDS011;12115;47.128;15.422;2023-03-23T09:35:06;10.77;;;3.35;;
23868;SDS011;12115;47.128;15.422;2023-03-23T09:37:39;8.48;;;3.47;;
23868;SDS011;12115;47.128;15.422;2023-03-23T09:40:07;13.68;;;3.63;;
23868;SDS011;12115;47.128;15.422;2023-03-23T09:45:34;8.50;;;3.15;;
23868;SDS011;12115;47.128;15.422;2023-03-23T09:50:35;8.93;;;3.28;;
23868;SDS011;12115;47.128;15.422;2023-03-23T09:53:09;11.75;;;3.60;;
23868;SDS011;12115;47.128;15.422;2023-03-23T09:55:52;7.47;;;3.28;;
23868;SDS011;12115;47.128;15.422;2023-03-23T09:58:24;10.48;;;3.80;;
23868;SDS011;12115;47.128;15.422;2023-03-23T10:01:28;8.35;;;3.50;;
23868;SDS011;12115;47.128;15.422;2023-03-23T10:03:58;7.55;;;3.05;;
23868;SDS011;12115;47.128;15.422;2023-03-23T10:06:45;9.13;;;3.38;;
23868;SDS011;12115;47.128;15.422;2023-03-23T10:09:14;6.78;;;3.42;;
23868;SDS011;12115;47.128;15.422;2023-03-23T10:17:24;8.70;;;3.55;;
23868;SDS011;12115;47.128;15.422;2023-03-23T10:25:39;8.80;;;3.53;;
23868;SDS011;12115;47.128;15.422;2023-03-23T10:28:18;6.95;;;3.20;;
23868;SDS011;12115;47.128;15.422;2023-03-23T10:30:55;8.35;;;3.15;;
23868;SDS011;12115;47.128;15.422;2023-03-23T10:33:29;4.88;;;3.30;;
23868;SDS011;12115;47.128;15.422;2023-03-23T10:36:10;5.13;;;2.83;;
23868;SDS011;12115;47.128;15.422;2023-03-23T10:41:47;3.10;;;2.80;;
23868;SDS011;12115;47.128;15.422;2023-03-23T10:44:20;6.07;;;3.20;;
23868;SDS011;12115;47.128;15.422;2023-03-23T10:49:30;7.13;;;3.60;;
23868;SDS011;12115;47.128;15.422;2023-03-23T10:54:37;8.05;;;3.30;;
23868;SDS011;12115;47.128;15.422;2023-03-23T10:57:40;6.07;;;3.88;;
23868;SDS011;12115;47.128;15.422;2023-03-23T11:00:04;9.57;;;3.40;;
23868;SDS011;12115;47.128;15.422;2023-03-23T11:02:37;7.45;;;3.35;;
23868;SDS011;12115;47.128;15.422;2023-03-23T11:05:12;5.13;;;3.40;;
23868;SDS011;12115;47.128;15.422;2023-03-23T11:07:39;6.13;;;3.70;;
23868;SDS011;12115;47.128;15.422;2023-03-23T11:10:23;6.22;;;3.53;;
23868;SDS011;12115;47.128;15.422;2023-03-23T11:12:52;4.70;;;3.30;;
23868;SDS011;12115;47.128;15.422;2023-03-23T11:15:30;3.67;;;2.80;;
23868;SDS011;12115;47.128;15.422;2023-03-23T11:18:10;5.82;;;3.00;;
23868;SDS011;12115;47.128;15.422;2023-03-23T11:21:01;8.57;;;3.90;;
23868;SDS011;12115;47.128;15.422;2023-03-23T11:23:36;7.50;;;3.85;;
23868;SDS011;12115;47.128;15.422;2023-03-23T11:26:14;6.65;;;4.18;;
23868;SDS011;12115;47.128;15.422;2023-03-23T11:28:46;8.25;;;4.00;;
23868;SDS011;12115;47.128;15.422;2023-03-23T11:31:22;6.95;;;3.83;;
23868;SDS011;12115;47.128;15.422;2023-03-23T11:34:24;8.23;;;3.97;;
23868;SDS011;12115;47.128;15.422;2023-03-23T11:37:06;12.68;;;5.38;;
23868;SDS011;12115;47.128;15.422;2023-03-23T11:40:13;14.40;;;4.85;;
23868;SDS011;12115;47.128;15.422;2023-03-23T11:43:07;13.20;;;3.78;;
23868;SDS011;12115;47.128;15.422;2023-03-23T11:51:15;11.75;;;5.05;;
23868;SDS011;12115;47.128;15.422;2023-03-23T11:56:51;5.82;;;4.32;;
23868;SDS011;12115;47.128;15.422;2023-03-23T11:59:29;10.30;;;4.55;;
23868;SDS011;12115;47.128;15.422;2023-03-23T12:04:35;8.52;;;4.90;;
23868;SDS011;12115;47.128;15.422;2023-03-23T12:10:25;14.25;;;5.60;;
23868;SDS011;12115;47.128;15.422;2023-03-23T12:16:09;10.38;;;4.90;;
23868;SDS011;12115;47.128;15.422;2023-03-23T12:21:34;11.88;;;4.88;;
23868;SDS011;12115;47.128;15.422;2023-03-23T12:26:33;10.23;;;4.85;;
23868;SDS011;12115;47.128;15.422;2023-03-23T12:48:20;8.15;;;4.57;;
23868;SDS011;12115;47.128;15.422;2023-03-23T12:58:47;9.52;;;5.00;;
23868;SDS011;12115;47.128;15.422;2023-03-23T13:01:30;11.87;;;4.87;;
23868;SDS011;12115;47.128;15.422;2023-03-23T13:04:06;14.60;;;4.75;;
23868;SDS011;12115;47.128;15.422;2023-03-23T13:06:38;10.70;;;4.60;;
23868;SDS011;12115;47.128;15.422;2023-03-23T13:09:20;10.30;;;4.88;;
23868;SDS011;12115;47.128;15.422;2023-03-23T13:12:14;8.73;;;5.05;;
23868;SDS011;12115;47.128;15.422;2023-03-23T13:22:49;8.73;;;4.53;;
23868;SDS011;12115;47.128;15.422;2023-03-23T13:25:45;11.48;;;5.28;;
23868;SDS011;12115;47.128;15.422;2023-03-23T13:28:19;8.30;;;4.65;;
23868;SDS011;12115;47.128;15.422;2023-03-23T13:30:54;9.20;;;4.68;;
23868;SDS011;12115;47.128;15.422;2023-03-23T13:33:22;11.00;;;4.80;;
23868;SDS011;12115;47.128;15.422;2023-03-23T13:35:49;7.20;;;4.75;;
23868;SDS011;12115;47.128;15.422;2023-03-23T13:40:50;8.32;;;4.53;;
23868;SDS011;12115;47.128;15.422;2023-03-23T13:43:26;13.23;;;4.68;;
23868;SDS011;12115;47.128;15.422;2023-03-23T13:45:53;12.45;;;4.68;;
23868;SDS011;12115;47.128;15.422;2023-03-23T13:48:22;9.60;;;4.82;;
23868;SDS011;12115;47.128;15.422;2023-03-23T13:53:31;6.88;;;5.35;;
23868;SDS011;12115;47.128;15.422;2023-03-23T13:56:19;10.40;;;5.15;;
23868;SDS011;12115;47.128;15.422;2023-03-23T13:59:15;12.70;;;5.47;;
23868;SDS011;12115;47.128;15.422;2023-03-23T14:01:54;9.10;;;5.28;;
23868;SDS011;12115;47.128;15.422;2023-03-23T14:04:22;6.97;;;4.47;;
23868;SDS011;12115;47.128;15.422;2023-03-23T14:06:56;11.27;;;4.90;;
23868;SDS011;12115;47.128;15.422;2023-03-23T14:09:28;11.02;;;4.25;;
23868;SDS011;12115;47.128;15.422;2023-03-23T14:12:04;9.57;;;5.80;;
23868;SDS011;12115;47.128;15.422;2023-03-23T14:15:00;7.38;;;5.28;;
23868;SDS011;12115;47.128;15.422;2023-03-23T14:17:31;7.95;;;5.60;;
23868;SDS011;12115;47.128;15.422;2023-03-23T14:20:05;10.68;;;4.65;;
23868;SDS011;12115;47.128;15.422;2023-03-23T14:22:38;11.75;;;4.85;;
23868;SDS011;12115;47.128;15.422;2023-03-23T14:25:12;8.25;;;4.53;;
23868;SDS011;12115;47.128;15.422;2023-03-23T14:27:42;9.00;;;4.80;;
23868;SDS011;12115;47.128;15.422;2023-03-23T14:30:13;8.65;;;4.57;;
23868;SDS011;12115;47.128;15.422;2023-03-23T14:32:41;11.18;;;4.18;;
23868;SDS011;12115;47.128;15.422;2023-03-23T14:35:22;7.90;;;5.15;;
23868;SDS011;12115;47.128;15.422;2023-03-23T14:37:49;7.93;;;5.15;;
23868;SDS011;12115;47.128;15.422;2023-03-23T14:40:16;9.30;;;5.38;;
23868;SDS011;12115;47.128;15.422;2023-03-23T14:42:43;8.32;;;4.78;;
23868;SDS011;12115;47.128;15.422;2023-03-23T14:45:12;8.07;;;4.60;;
23868;SDS011;12115;47.128;15.422;2023-03-23T14:47:50;9.65;;;4.43;;
23868;SDS011;12115;47.128;15.422;2023-03-23T14:50:24;11.55;;;5.00;;
23868;SDS011;12115;47.128;15.422;2023-03-23T14:52:59;10.63;;;4.93;;
23868;SDS011;12115;47.128;15.422;2023-03-23T14:55:30;9.25;;;5.07;;
23868;SDS011;12115;47.128;15.422;2023-03-23T14:58:05;5.95;;;4.07;;
23868;SDS011;12115;47.128;15.422;2023-03-23T15:00:35;8.40;;;4.00;;
23868;SDS011;12115;47.128;15.422;2023-03-23T15:03:10;6.85;;;4.55;;
23868;SDS011;12115;47.128;15.422;2023-03-23T15:05:42;7.82;;;3.85;;
23868;SDS011;12115;47.128;15.422;2023-03-23T15:08:13;7.60;;;4.38;;
23868;SDS011;12115;47.128;15.422;2023-03-23T15:10:50;5.25;;;3.45;;
23868;SDS011;12115;47.128;15.422;2023-03-23T15:13:47;10.60;;;4.53;;
23868;SDS011;12115;47.128;15.422;2023-03-23T15:16:20;9.73;;;4.90;;
23868;SDS011;12115;47.128;15.422;2023-03-23T15:18:51;7.20;;;4.45;;
23868;SDS011;12115;47.128;15.422;2023-03-23T15:21:21;6.38;;;3.97;;
23868;SDS011;12115;47.128;15.422;2023-03-23T15:23:50;9.63;;;4.55;;
23868;SDS011;12115;47.128;15.422;2023-03-23T15:29:15;7.18;;;4.03;;
23868;SDS011;12115;47.128;15.422;2023-03-23T15:31:50;9.50;;;4.28;;
23868;SDS011;12115;47.128;15.422;2023-03-23T15:34:24;11.07;;;4.57;;
23868;SDS011;12115;47.128;15.422;2023-03-23T15:36:55;6.97;;;3.73;;
23868;SDS011;12115;47.128;15.422;2023-03-23T15:39:23;6.32;;;3.67;;
23868;SDS011;12115;47.128;15.422;2023-03-23T15:41:51;9.80;;;4.85;;
23868;SDS011;12115;47.128;15.422;2023-03-23T15:44:31;7.50;;;3.63;;
23868;SDS011;12115;47.128;15.422;2023-03-23T15:47:15;9.77;;;3.65;;
23868;SDS011;12115;47.128;15.422;2023-03-23T15:49:44;5.85;;;3.58;;
23868;SDS011;12115;47.128;15.422;2023-03-23T15:52:14;6.40;;;3.80;;
23868;SDS011;12115;47.128;15.422;2023-03-23T15:54:48;6.25;;;3.42;;
23868;SDS011;12115;47.128;15.422;2023-03-23T15:57:14;5.50;;;3.65;;
23868;SDS011;12115;47.128;15.422;2023-03-23T15:59:41;6.13;;;3.58;;
23868;SDS011;12115;47.128;15.422;2023-03-23T16:02:21;12.55;;;3.60;;
23868;SDS011;12115;47.128;15.422;2023-03-23T16:04:50;5.25;;;3.70;;
23868;SDS011;12115;47.128;15.422;2023-03-23T16:07:20;5.97;;;3.35;;
23868;SDS011;12115;47.128;15.422;2023-03-23T16:09:49;6.93;;;3.13;;
23868;SDS011;12115;47.128;15.422;2023-03-23T16:12:24;7.18;;;3.15;;
23868;SDS011;12115;47.128;15.422;2023-03-23T16:14:51;6.07;;;3.58;;
23868;SDS011;12115;47.128;15.422;2023-03-23T16:17:21;7.72;;;4.20;;
23868;SDS011;12115;47.128;15.422;2023-03-23T16:19:49;9.40;;;3.85;;
23868;SDS011;12115;47.128;15.422;2023-03-23T16:22:16;10.50;;;4.22;;
23868;SDS011;12115;47.128;15.422;2023-03-23T16:24:44;6.72;;;4.18;;
23868;SDS011;12115;47.128;15.422;2023-03-23T16:27:12;9.05;;;3.80;;
23868;SDS011;12115;47.128;15.422;2023-03-23T16:29:40;9.65;;;4.60;;
23868;SDS011;12115;47.128;15.422;2023-03-23T16:32:27;9.73;;;4.07;;
23868;SDS011;12115;47.128;15.422;2023-03-23T16:34:55;9.35;;;4.28;;
23868;SDS011;12115;47.128;15.422;2023-03-23T16:37:22;6.28;;;3.92;;
23868;SDS011;12115;47.128;15.422;2023-03-23T16:39:51;9.20;;;3.83;;
23868;SDS011;12115;47.128;15.422;2023-03-23T16:42:19;6.05;;;3.75;;
23868;SDS011;12115;47.128;15.422;2023-03-23T16:44:47;3.60;;;2.70;;
23868;SDS011;12115;47.128;15.422;2023-03-23T16:47:16;5.75;;;3.40;;
23868;SDS011;12115;47.128;15.422;2023-03-23T16:49:51;5.05;;;2.88;;
23868;SDS011;12115;47.128;15.422;2023-03-23T16:52:19;8.15;;;3.88;;
23868;SDS011;12115;47.128;15.422;2023-03-23T16:54:47;7.13;;;3.67;;
23868;SDS011;12115;47.128;15.422;2023-03-23T16:57:14;9.45;;;4.22;;
23868;SDS011;12115;47.128;15.422;2023-03-23T16:59:43;8.45;;;4.10;;
23868;SDS011;12115;47.128;15.422;2023-03-23T17:02:11;9.63;;;5.38;;
23868;SDS011;12115;47.128;15.422;2023-03-23T17:04:43;9.50;;;4.90;;
23868;SDS011;12115;47.128;15.422;2023-03-23T17:07:12;9.50;;;4.85;;
23868;SDS011;12115;47.128;15.422;2023-03-23T17:09:40;8.77;;;4.75;;